createdAt,value
2022-08-26T00:04:38.086Z,14.87
2022-08-26T00:09:42.805Z,11.27
2022-08-26T00:14:50.846Z,12.73
2022-08-26T00:19:54.315Z,18.07
2022-08-26T00:24:59.105Z,15.87
2022-08-26T00:30:02.554Z,14.23
2022-08-26T00:35:06.951Z,14.73
2022-08-26T00:40:14.447Z,11.40
2022-08-26T00:45:18.354Z,13.90
2022-08-26T00:50:24.146Z,15.13
2022-08-26T00:55:37.765Z,17.33
2022-08-26T01:00:41.733Z,23.00
2022-08-26T01:05:48.788Z,17.40
2022-08-26T01:10:54.940Z,21.00
2022-08-26T01:16:01.680Z,14.63
2022-08-26T01:21:09.150Z,16.07
2022-08-26T01:26:19.903Z,18.87
2022-08-26T01:31:25.009Z,10.33
2022-08-26T01:36:28.340Z,14.27
2022-08-26T01:41:33.631Z,21.30
2022-08-26T01:46:37.183Z,19.40
2022-08-26T01:51:41.247Z,16.53
2022-08-26T01:56:46.988Z,14.33
2022-08-26T02:01:51.320Z,13.77
2022-08-26T02:06:57.504Z,14.97
2022-08-26T02:12:04.036Z,13.20
2022-08-26T02:17:08.753Z,11.73
2022-08-26T02:22:15.076Z,16.27
2022-08-26T02:27:22.566Z,16.03
2022-08-26T02:32:26.195Z,16.97
2022-08-26T02:37:31.786Z,17.23
2022-08-26T02:42:39.111Z,21.10
2022-08-26T02:47:42.526Z,15.43
2022-08-26T02:52:45.910Z,14.90
2022-08-26T02:57:52.141Z,16.43
2022-08-26T03:02:55.590Z,14.87
2022-08-26T03:08:00.242Z,17.17
2022-08-26T03:13:07.885Z,14.83
2022-08-26T03:18:12.011Z,17.93
2022-08-26T03:23:15.393Z,17.53
2022-08-26T03:28:20.211Z,19.53
2022-08-26T03:34:49.676Z,17.27
2022-08-26T03:39:53.168Z,20.13
2022-08-26T03:44:57.252Z,23.23
2022-08-26T03:50:02.439Z,20.77
2022-08-26T03:55:06.558Z,21.57
2022-08-26T04:00:13.771Z,21.60
2022-08-26T04:05:19.622Z,19.33
2022-08-26T04:10:28.741Z,19.33
2022-08-26T04:15:32.761Z,22.43
2022-08-26T04:20:39.280Z,23.40
2022-08-26T04:25:42.680Z,25.03
2022-08-26T04:30:46.245Z,20.97
2022-08-26T04:35:51.467Z,29.67
2022-08-26T04:40:56.193Z,29.00
2022-08-26T04:46:01.582Z,22.60
2022-08-26T04:51:06.504Z,21.77
2022-08-26T04:56:09.961Z,21.03
2022-08-26T05:01:13.736Z,16.97
2022-08-26T05:06:20.677Z,20.13
2022-08-26T05:11:25.425Z,17.70
2022-08-26T05:16:29.347Z,24.50
2022-08-26T05:21:34.577Z,22.47
2022-08-26T05:26:37.963Z,21.63
2022-08-26T05:31:41.791Z,28.77
2022-08-26T05:36:46.493Z,23.30
2022-08-26T05:41:49.892Z,19.33
2022-08-26T05:46:53.426Z,26.90
2022-08-26T05:51:58.178Z,22.60
2022-08-26T05:57:01.572Z,19.77
2022-08-26T06:02:05.118Z,21.73
2022-08-26T06:07:11.562Z,20.20
2022-08-26T06:12:16.415Z,22.20
2022-08-26T06:17:21.910Z,22.87
2022-08-26T06:22:45.495Z,19.87
2022-08-26T06:27:49.018Z,19.67
2022-08-26T06:32:52.546Z,22.37
2022-08-26T06:37:57.751Z,21.40
2022-08-26T06:43:01.041Z,19.30
2022-08-26T06:48:05.029Z,17.67
2022-08-26T06:53:12.887Z,22.20
2022-08-26T06:58:16.326Z,17.27
2022-08-26T07:03:19.698Z,21.93
2022-08-26T07:08:24.747Z,20.02
2022-08-26T07:13:30.601Z,19.17
2022-08-26T07:18:34.817Z,18.08
2022-08-26T07:23:39.772Z,18.42
2022-08-26T07:28:44.607Z,16.73
2022-08-26T07:33:48.452Z,20.20
2022-08-26T07:38:53.571Z,14.15
2022-08-26T07:43:56.971Z,11.43
2022-08-26T07:49:00.547Z,13.93
2022-08-26T07:54:05.616Z,10.52
2022-08-26T07:59:13.719Z,12.38
2022-08-26T08:04:21.895Z,10.98
2022-08-26T08:09:31.061Z,12.63
2022-08-26T08:14:34.711Z,14.20
2022-08-26T08:19:39.229Z,16.20
2022-08-26T08:24:44.322Z,12.43
2022-08-26T08:29:47.946Z,8.77
2022-08-26T08:34:52.130Z,11.68
2022-08-26T08:39:56.970Z,15.50
2022-08-26T08:45:03.294Z,11.93
2022-08-26T08:50:10.666Z,13.32
2022-08-26T08:55:18.325Z,17.60
2022-08-26T09:00:30.436Z,11.93
2022-08-26T09:05:40.273Z,14.52
2022-08-26T09:10:48.387Z,18.85
2022-08-26T09:15:56.543Z,13.05
2022-08-26T09:21:02.148Z,10.63
2022-08-26T09:26:14.784Z,15.55
2022-08-26T09:31:21.501Z,14.45
2022-08-26T09:36:39.169Z,14.80
2022-08-26T09:41:46.051Z,12.90
2022-08-26T09:46:53.782Z,11.40
2022-08-26T09:52:21.189Z,14.00
2022-08-26T09:57:28.622Z,12.43
2022-08-26T10:02:47.561Z,10.32
2022-08-26T10:07:52.992Z,9.80
2022-08-26T10:13:03.252Z,10.13
2022-08-26T10:18:11.039Z,9.02
2022-08-26T10:23:18.129Z,13.00
2022-08-26T10:28:27.123Z,17.05
2022-08-26T10:33:30.526Z,8.27
2022-08-26T10:38:35.757Z,18.27
2022-08-26T10:43:44.391Z,14.68
2022-08-26T10:48:48.931Z,15.35
2022-08-26T10:53:58.947Z,15.55
2022-08-26T10:59:12.359Z,11.88
2022-08-26T11:04:34.988Z,15.48
2022-08-26T11:09:45.495Z,11.50
2022-08-26T11:14:58.749Z,15.65
2022-08-26T11:20:08.989Z,9.82
2022-08-26T11:25:13.692Z,14.30
2022-08-26T11:30:32.009Z,10.38
2022-08-26T11:35:52.252Z,10.40
2022-08-26T11:41:03.808Z,10.30
2022-08-26T11:46:09.195Z,17.80
2022-08-26T11:51:21.717Z,15.32
2022-08-26T11:56:31.576Z,15.43
2022-08-26T12:01:36.774Z,11.95
2022-08-26T12:06:46.696Z,13.63
2022-08-26T12:11:50.269Z,10.70
2022-08-26T12:16:54.607Z,10.00
2022-08-26T12:22:02.190Z,12.07
2022-08-26T12:27:11.233Z,14.40
2022-08-26T12:32:18.531Z,12.27
2022-08-26T12:37:23.442Z,17.83
2022-08-26T12:42:41.487Z,13.15
2022-08-26T12:47:46.634Z,17.52
2022-08-26T12:52:57.288Z,11.45
2022-08-26T12:58:31.801Z,8.05
2022-08-26T13:03:43.550Z,9.25
2022-08-26T13:08:48.839Z,7.22
2022-08-26T13:13:53.646Z,8.60
2022-08-26T13:18:59.253Z,10.77
2022-08-26T13:24:06.274Z,10.10
2022-08-26T13:29:10.602Z,11.50
2022-08-26T13:34:15.729Z,13.37
2022-08-26T13:39:21.587Z,11.73
2022-08-26T13:44:25.022Z,12.37
2022-08-26T13:49:28.547Z,9.90
2022-08-26T13:54:33.422Z,12.97
2022-08-26T13:59:36.822Z,10.07
2022-08-26T14:04:42.024Z,9.03
2022-08-26T14:09:46.719Z,12.93
2022-08-26T14:14:50.242Z,13.20
2022-08-26T14:19:53.930Z,12.53
2022-08-26T14:24:58.777Z,14.40
2022-08-26T14:30:02.284Z,9.20
2022-08-26T14:35:05.964Z,13.77
2022-08-26T14:40:14.119Z,11.70
2022-08-26T14:45:18.579Z,11.00
2022-08-26T14:50:23.013Z,11.10
2022-08-26T14:55:27.837Z,15.13
2022-08-26T15:00:31.800Z,10.35
2022-08-26T15:05:35.243Z,10.98
2022-08-26T15:10:40.112Z,16.05
2022-08-26T15:15:43.522Z,12.38
2022-08-26T15:20:47.114Z,13.70
2022-08-26T15:25:51.829Z,12.93
2022-08-26T15:30:55.306Z,11.40
2022-08-26T15:36:00.517Z,15.90
2022-08-26T15:41:06.198Z,12.30
2022-08-26T15:46:11.996Z,13.02
2022-08-26T15:51:20.868Z,20.25
2022-08-26T15:56:27.604Z,13.10
2022-08-26T16:01:32.665Z,12.77
2022-08-26T16:06:37.559Z,11.50
2022-08-26T16:11:42.346Z,13.70
2022-08-26T16:16:45.793Z,13.70
2022-08-26T16:21:50.813Z,10.18
2022-08-26T16:26:55.641Z,9.88
2022-08-26T16:31:59.063Z,13.75
2022-08-26T16:37:02.589Z,13.27
2022-08-26T16:42:07.773Z,10.45
2022-08-26T16:47:12.283Z,9.43
2022-08-26T16:52:15.722Z,13.48
2022-08-26T16:57:20.595Z,9.40
2022-08-26T17:02:24.079Z,8.55
2022-08-26T17:07:28.684Z,7.88
2022-08-26T17:12:33.447Z,5.70
2022-08-26T17:17:36.886Z,12.98
2022-08-26T17:22:41.315Z,10.52
2022-08-26T17:27:46.307Z,8.60
2022-08-26T17:32:49.792Z,6.03
2022-08-26T17:37:53.287Z,5.87
2022-08-26T17:42:58.834Z,6.30
2022-08-26T17:48:02.245Z,5.03
2022-08-26T17:53:05.613Z,7.35
2022-08-26T17:58:10.489Z,10.30
2022-08-26T18:03:19.213Z,8.93
2022-08-26T18:08:22.573Z,6.63
2022-08-26T18:13:27.400Z,6.63
2022-08-26T18:18:31.925Z,9.10
2022-08-26T18:23:38.400Z,8.93
2022-08-26T18:28:43.168Z,7.23
2022-08-26T18:33:46.864Z,8.20
2022-08-26T18:38:50.759Z,4.83
2022-08-26T18:43:55.920Z,9.27
2022-08-26T18:48:59.369Z,7.93
2022-08-26T18:54:05.659Z,8.53
2022-08-26T18:59:10.700Z,9.60
2022-08-26T19:04:15.564Z,9.80
2022-08-26T19:09:19.413Z,8.00
2022-08-26T19:14:26.063Z,7.23
2022-08-26T19:19:29.439Z,6.93
2022-08-26T19:24:33.005Z,8.47
2022-08-26T19:29:38.189Z,8.97
2022-08-26T19:34:41.713Z,7.20
2022-08-26T19:39:45.094Z,6.40
2022-08-26T19:45:07.236Z,7.30
2022-08-26T19:50:15.223Z,9.37
2022-08-26T19:55:19.584Z,7.97
2022-08-26T20:00:25.998Z,10.43
2022-08-26T20:05:29.778Z,8.23
2022-08-26T20:10:35.464Z,5.67
2022-08-26T20:15:40.151Z,13.57
2022-08-26T20:21:01.148Z,10.83
2022-08-26T20:26:05.094Z,11.07
2022-08-26T20:31:10.029Z,9.03
2022-08-26T20:36:16.226Z,9.93
2022-08-26T20:41:19.948Z,10.77
2022-08-26T20:46:25.290Z,10.00
2022-08-26T20:51:29.342Z,10.10
2022-08-26T20:56:32.783Z,9.63
2022-08-26T21:01:41.950Z,7.93
2022-08-26T21:06:52.130Z,7.53
2022-08-26T21:11:56.438Z,6.87
2022-08-26T21:17:01.259Z,8.30
2022-08-26T21:22:05.045Z,10.33
2022-08-26T21:27:08.463Z,6.47
2022-08-26T21:32:13.279Z,8.73
2022-08-26T21:37:19.178Z,12.23
2022-08-26T21:42:22.559Z,7.17
2022-08-26T21:47:27.469Z,8.67
2022-08-26T21:52:30.992Z,7.33
2022-08-26T21:57:34.868Z,7.20
2022-08-26T22:02:39.772Z,9.43
2022-08-26T22:07:43.161Z,7.00
2022-08-26T22:12:46.953Z,12.00
2022-08-26T22:17:51.928Z,8.37
2022-08-26T22:22:55.314Z,6.83
2022-08-26T22:27:58.788Z,9.17
2022-08-26T22:33:03.918Z,6.50
2022-08-26T22:38:07.263Z,7.57
2022-08-26T22:43:10.819Z,6.53
2022-08-26T22:48:17.053Z,7.17
2022-08-26T22:53:20.533Z,5.10
2022-08-26T22:58:30.446Z,7.53
2022-08-26T23:03:36.153Z,5.80
2022-08-26T23:08:40.054Z,5.67
2022-08-26T23:13:43.440Z,7.13
2022-08-26T23:18:48.202Z,8.70
2022-08-26T23:23:52.285Z,11.37
2022-08-26T23:28:55.653Z,7.83
2022-08-26T23:34:18.288Z,9.10
2022-08-26T23:39:21.888Z,10.53
2022-08-26T23:44:26.741Z,19.37
2022-08-26T23:49:31.455Z,7.13
2022-08-26T23:54:34.879Z,8.60
2022-08-26T23:59:38.804Z,7.17
